Time;durP1;ratioP1;P1;durP2;ratioP2;P2;SDS_P1;SDS_P2;PMS_P1;PMS_P2;Temp;Humidity;BMP_temperature;BMP_pressure;BME280_temperature;BME280_humidity;BME280_pressure;Samples;Min_cycle;Max_cycle;Signal;HPM_P1;HPM_P2
2022/01/02 15:06:09;;;;;;;11.07;9.77;;;;;;;11.77;52.96;95593.88;6134337;22;1375492;-71
2022/01/02 15:08:36;;;;;;;6.57;5.30;;;;;;;11.74;53.04;95595.00;6140218;23;20552;-71
2022/01/02 15:11:03;;;;;;;5.50;4.90;;;;;;;11.66;53.53;95600.97;6164749;23;20195;-70
2022/01/02 15:13:29;;;;;;;4.53;4.13;;;;;;;11.62;53.01;95594.31;6164969;23;20206;-69
2022/01/02 15:15:54;;;;;;;5.27;4.77;;;;;;;11.52;53.31;95592.69;6140262;23;20213;-69
2022/01/02 15:18:20;;;;;;;6.30;5.70;;;;;;;11.52;53.50;95590.06;6165157;23;20178;-70
2022/01/02 15:20:46;;;;;;;5.10;4.60;;;;;;;11.51;53.51;95593.69;6167348;23;20619;-69
2022/01/02 15:23:11;;;;;;;6.00;5.40;;;;;;;11.36;54.10;95598.56;6165261;23;20258;-70
2022/01/02 15:25:37;;;;;;;6.40;5.80;;;;;;;11.31;53.83;95583.22;6138356;23;20195;-71
2022/01/02 15:28:03;;;;;;;11.93;10.33;;;;;;;11.29;54.10;95582.50;6164524;23;20273;-71
2022/01/02 15:33:14;;;;;;;12.57;9.17;;;;;;;11.18;54.87;95585.31;6164993;23;20197;-70
2022/01/02 15:35:40;;;;;;;8.93;7.00;;;;;;;11.10;54.90;95590.44;6164848;23;20198;-69
2022/01/02 15:38:05;;;;;;;37.13;26.03;;;;;;;11.06;55.26;95589.88;6141898;23;20250;-70
2022/01/02 15:40:31;;;;;;;103.23;70.30;;;;;;;11.08;55.57;95587.13;6142413;23;20199;-70
2022/01/02 15:42:59;;;;;;;12.27;10.13;;;;;;;10.97;55.71;95591.56;6141341;23;20194;-71
2022/01/02 15:45:25;;;;;;;8.93;8.03;;;;;;;10.82;56.42;95582.44;6166546;23;20194;-69
2022/01/02 15:47:51;;;;;;;11.17;8.23;;;;;;;10.85;56.26;95597.94;6141193;23;20214;-64
2022/01/02 15:50:18;;;;;;;10.97;9.80;;;;;;;10.76;56.60;95591.72;6166143;23;20203;-64
2022/01/02 15:52:45;;;;;;;11.73;8.90;;;;;;;10.66;56.97;95590.88;6166262;23;20206;-68
2022/01/02 15:55:12;;;;;;;11.67;10.00;;;;;;;10.68;56.91;95590.75;6167374;23;20210;-64
2022/01/02 15:57:38;;;;;;;11.87;9.33;;;;;;;10.60;57.24;95594.88;6166965;23;20210;-67
2022/01/02 16:00:07;;;;;;;14.23;11.40;;;;;;;10.50;57.42;95599.31;6141789;23;20182;-65
2022/01/02 16:02:32;;;;;;;12.07;10.30;;;;;;;10.41;58.07;95589.63;6140168;23;20435;-63
2022/01/02 16:04:57;;;;;;;13.70;12.30;;;;;;;10.44;57.82;95593.78;6141244;23;20206;-63
2022/01/02 16:07:23;;;;;;;19.00;13.13;;;;;;;10.46;57.50;95591.84;6140177;23;20261;-64
2022/01/02 16:09:48;;;;;;;15.97;13.63;;;;;;;10.28;57.81;95589.03;6140259;23;20217;-65
2022/01/02 16:12:14;;;;;;;15.90;13.77;;;;;;;10.14;58.45;95583.19;6142374;23;20167;-65
2022/01/02 16:14:39;;;;;;;20.70;15.10;;;;;;;10.11;58.60;95587.88;6165613;23;20206;-66
2022/01/02 16:17:05;;;;;;;16.07;13.63;;;;;;;9.97;58.85;95589.09;6165466;23;20202;-67
2022/01/02 16:19:32;;;;;;;17.17;14.70;;;;;;;10.09;58.94;95595.06;6166582;23;20226;-64
2022/01/02 16:21:59;;;;;;;19.67;14.60;;;;;;;10.06;58.98;95583.03;6141080;23;20199;-64
2022/01/02 16:24:25;;;;;;;18.17;14.47;;;;;;;9.93;59.04;95596.41;6165856;23;20175;-66
2022/01/02 16:26:52;;;;;;;19.93;15.40;;;;;;;9.96;59.48;95591.84;6141234;23;20185;-66
2022/01/02 16:29:26;;;;;;;20.07;17.03;;;;;;;9.87;59.12;95593.47;6141179;23;20511;-64
2022/01/02 16:31:53;;;;;;;23.87;17.17;;;;;;;9.78;59.65;95591.63;6141725;23;20194;-65
2022/01/02 16:34:18;;;;;;;20.77;17.57;;;;;;;9.70;59.90;95589.66;6165720;23;20256;-69
2022/01/02 16:36:44;;;;;;;21.83;17.97;;;;;;;9.63;60.11;95588.56;6165089;23;20199;-65
2022/01/02 16:39:09;;;;;;;30.70;22.60;;;;;;;9.65;60.18;95600.59;6165672;23;20171;-65
2022/01/02 16:41:35;;;;;;;28.53;22.87;;;;;;;9.49;60.58;95592.38;6135581;23;20207;-65
2022/01/02 16:44:02;;;;;;;35.10;23.90;;;;;;;9.61;60.33;95599.19;6132403;23;20201;-65
2022/01/02 16:46:27;;;;;;;40.13;28.57;;;;;;;9.60;60.76;95594.91;6165424;23;20221;-65
2022/01/02 16:48:53;;;;;;;30.77;21.23;;;;;;;9.61;60.27;95588.66;6166247;23;20203;-64
2022/01/02 16:51:19;;;;;;;28.97;19.97;;;;;;;9.65;60.49;95584.84;6141329;23;20226;-67
2022/01/02 16:53:44;;;;;;;28.63;17.80;;;;;;;9.64;60.16;95585.78;6166738;23;20167;-65
2022/01/02 16:56:10;;;;;;;28.33;18.57;;;;;;;9.61;60.15;95585.22;6139920;23;20203;-64
2022/01/02 16:58:36;;;;;;;28.03;18.30;;;;;;;9.55;60.39;95581.34;6140548;23;20207;-64
2022/01/02 17:01:02;;;;;;;29.27;17.67;;;;;;;9.58;60.70;95575.81;6139648;23;20206;-64
2022/01/02 17:03:27;;;;;;;24.00;17.40;;;;;;;9.60;60.10;95579.16;6140693;23;20186;-63
2022/01/02 17:05:53;;;;;;;18.43;13.83;;;;;;;9.55;60.16;95577.88;6166567;23;20194;-65
2022/01/02 17:08:18;;;;;;;24.87;14.80;;;;;;;9.28;60.50;95577.47;6141221;23;20214;-68
2022/01/02 17:10:44;;;;;;;22.83;15.17;;;;;;;9.04;61.29;95571.69;6166284;23;20222;-68
2022/01/02 17:13:12;;;;;;;20.37;14.10;;;;;;;8.98;61.82;95566.91;6140812;23;20202;-64
2022/01/02 17:15:37;;;;;;;17.87;13.23;;;;;;;9.03;61.61;95573.47;6140160;23;20218;-63
2022/01/02 17:18:03;;;;;;;22.30;15.03;;;;;;;9.14;61.25;95572.56;6141108;23;20564;-63
2022/01/02 17:20:33;;;;;;;22.87;16.17;;;;;;;9.15;61.07;95568.16;6140001;23;20230;-62
2022/01/02 17:22:58;;;;;;;21.33;15.77;;;;;;;9.20;61.30;95579.91;6140676;23;20229;-64
2022/01/02 17:25:24;;;;;;;23.90;16.23;;;;;;;9.09;61.40;95571.28;6165181;23;20343;-64
2022/01/02 17:27:50;;;;;;;32.13;21.37;;;;;;;8.92;61.91;95577.94;6139684;23;20198;-63
2022/01/02 17:30:18;;;;;;;37.10;18.67;;;;;;;8.79;62.00;95575.50;6140400;23;20181;-67
2022/01/02 17:32:45;;;;;;;20.77;14.23;;;;;;;8.87;61.99;95570.44;6162646;23;20194;-65
2022/01/02 17:35:13;;;;;;;17.40;13.77;;;;;;;8.90;61.64;95569.34;6140462;23;20195;-64
2022/01/02 17:37:44;;;;;;;17.00;13.87;;;;;;;8.74;62.30;95557.53;6165688;23;20477;-65
2022/01/02 17:40:11;;;;;;;18.90;12.87;;;;;;;8.80;61.87;95559.66;6166379;23;20271;-66
2022/01/02 17:42:37;;;;;;;17.23;13.00;;;;;;;8.68;61.86;95552.78;6166528;23;20208;-65
2022/01/02 17:45:04;;;;;;;17.73;13.67;;;;;;;8.54;62.23;95558.34;6141202;23;20174;-64
2022/01/02 17:47:30;;;;;;;18.30;13.93;;;;;;;8.58;62.59;95555.34;6166444;23;20254;-64
2022/01/02 17:49:56;;;;;;;17.87;14.73;;;;;;;8.67;62.27;95552.94;6139984;23;20202;-65
2022/01/02 17:52:21;;;;;;;21.07;15.30;;;;;;;8.66;62.36;95549.47;6164593;23;20205;-62
2022/01/02 17:54:47;;;;;;;24.43;19.37;;;;;;;8.59;62.08;95550.94;6140126;23;20206;-65
2022/01/02 17:57:12;;;;;;;25.43;20.97;;;;;;;8.50;62.32;95543.81;6141516;23;20174;-64
2022/01/02 17:59:38;;;;;;;20.73;16.67;;;;;;;8.38;62.51;95553.50;6140840;23;20261;-66
2022/01/02 18:02:04;;;;;;;19.97;17.27;;;;;;;8.21;63.07;95554.88;6140339;23;20262;-65
2022/01/02 18:04:29;;;;;;;18.67;15.20;;;;;;;8.20;63.63;95555.81;6139947;23;20190;-65
2022/01/02 18:06:55;;;;;;;18.80;15.33;;;;;;;8.25;63.44;95556.25;6139753;23;20215;-65
2022/01/02 18:09:25;;;;;;;19.27;15.37;;;;;;;8.31;63.09;95547.06;6165691;23;20234;-65
2022/01/02 18:11:50;;;;;;;21.57;15.77;;;;;;;8.17;63.42;95553.44;6140973;23;20182;-65
2022/01/02 18:14:17;;;;;;;19.13;15.03;;;;;;;8.16;63.46;95554.41;6140065;23;20212;-64
2022/01/02 18:16:43;;;;;;;17.83;15.43;;;;;;;8.15;63.85;95548.34;6166643;23;20218;-67
2022/01/02 18:19:09;;;;;;;27.40;16.27;;;;;;;8.02;63.95;95542.44;6140579;23;20195;-66
2022/01/02 18:21:36;;;;;;;17.70;14.77;;;;;;;8.14;63.62;95540.59;6139958;23;20186;-62
2022/01/02 18:24:02;;;;;;;20.77;16.17;;;;;;;8.27;62.94;95546.50;6140546;23;20185;-64
2022/01/02 18:26:28;;;;;;;19.03;16.57;;;;;;;8.13;63.37;95552.03;6139101;23;20205;-65
2022/01/02 18:28:55;;;;;;;19.83;16.80;;;;;;;7.98;63.62;95542.78;6163663;23;20203;-61
2022/01/02 18:31:22;;;;;;;20.60;17.47;;;;;;;7.79;64.00;95539.00;6140448;23;20242;-63
2022/01/02 18:33:48;;;;;;;22.60;18.63;;;;;;;7.84;63.93;95538.66;6165953;23;20194;-62
2022/01/02 18:36:14;;;;;;;26.87;23.17;;;;;;;7.81;64.14;95526.63;6166828;23;20197;-61
2022/01/02 18:38:40;;;;;;;24.93;20.07;;;;;;;7.92;63.74;95525.78;6165767;23;20516;-63
2022/01/02 18:41:06;;;;;;;26.00;21.10;;;;;;;7.79;63.78;95523.31;6140137;23;20285;-66
2022/01/02 18:43:32;;;;;;;23.27;18.53;;;;;;;7.75;63.77;95521.88;6140729;23;20206;-64
2022/01/02 18:46:00;;;;;;;23.93;19.50;;;;;;;7.68;64.17;95518.09;6140495;23;20198;-63
2022/01/02 18:48:26;;;;;;;24.67;19.63;;;;;;;7.73;63.95;95515.94;6140268;23;20205;-63
2022/01/02 18:50:51;;;;;;;24.27;19.50;;;;;;;7.62;64.44;95513.34;6141574;23;20178;-63
2022/01/02 18:53:17;;;;;;;24.77;19.97;;;;;;;7.45;65.13;95515.50;6141187;23;20249;-63
2022/01/02 18:55:42;;;;;;;24.77;18.60;;;;;;;7.53;64.90;95514.06;6135439;23;20210;-63
2022/01/02 18:58:08;;;;;;;22.17;18.53;;;;;;;7.58;64.87;95515.38;6121207;23;20194;-62
2022/01/02 19:00:34;;;;;;;19.60;16.80;;;;;;;7.61;64.57;95503.81;6140117;23;20175;-66
2022/01/02 19:02:59;;;;;;;19.30;15.27;;;;;;;7.73;64.32;95495.00;6139972;23;20189;-63
2022/01/02 19:05:25;;;;;;;15.33;13.73;;;;;;;7.72;64.09;95499.41;6165381;23;20201;-61
2022/01/02 19:07:51;;;;;;;15.70;13.30;;;;;;;7.58;64.55;95494.44;6165076;23;20217;-63
2022/01/02 19:10:17;;;;;;;16.40;14.10;;;;;;;7.54;64.74;95492.16;6140723;23;20203;-61
2022/01/02 19:12:42;;;;;;;19.27;13.97;;;;;;;7.49;64.71;95492.56;6166160;23;20209;-61
2022/01/02 19:15:08;;;;;;;20.87;14.83;;;;;;;7.53;64.78;95487.91;6140193;23;20187;-62
2022/01/02 19:17:34;;;;;;;16.70;14.43;;;;;;;7.60;64.32;95487.28;6140587;23;20202;-65
2022/01/02 19:20:00;;;;;;;16.40;12.93;;;;;;;7.56;64.85;95483.25;6165923;23;20198;-65
2022/01/02 19:22:26;;;;;;;15.77;11.90;;;;;;;7.45;65.14;95486.72;6164770;23;20214;-66
2022/01/02 19:24:52;;;;;;;14.90;13.30;;;;;;;7.37;65.17;95475.19;6140547;23;20194;-64
2022/01/02 19:27:19;;;;;;;18.17;14.50;;;;;;;7.39;64.89;95479.34;6165483;23;20178;-65
2022/01/02 19:29:49;;;;;;;14.60;13.20;;;;;;;7.38;65.32;95480.31;6140677;23;20179;-65
2022/01/02 19:32:15;;;;;;;17.80;13.37;;;;;;;7.31;65.38;95489.59;6139615;23;20194;-64
2022/01/02 19:34:40;;;;;;;14.73;13.07;;;;;;;7.13;65.71;95488.41;6164985;23;20205;-64
2022/01/02 19:37:11;;;;;;;15.07;13.50;;;;;;;7.16;66.04;95486.38;6165236;23;20250;-64
2022/01/02 19:39:38;;;;;;;17.97;13.80;;;;;;;7.31;65.52;95488.75;6140347;23;20207;-64
2022/01/02 19:42:04;;;;;;;15.47;13.77;;;;;;;7.14;65.83;95487.47;6140834;23;20178;-63
2022/01/02 19:44:30;;;;;;;17.03;13.20;;;;;;;6.96;66.16;95489.72;6140873;23;20202;-63
2022/01/02 19:46:57;;;;;;;16.00;13.80;;;;;;;7.06;66.13;95486.28;6142460;23;20205;-64
2022/01/02 19:49:22;;;;;;;21.43;15.50;;;;;;;7.23;65.62;95497.22;6165384;23;20412;-62
2022/01/02 19:51:48;;;;;;;21.03;16.37;;;;;;;7.00;65.55;95499.84;6141439;23;20221;-62
2022/01/02 19:54:13;;;;;;;23.73;18.07;;;;;;;6.87;65.96;95496.50;6142499;23;20170;-63
2022/01/02 19:56:39;;;;;;;25.17;17.77;;;;;;;6.71;66.58;95496.81;6141690;23;20195;-61
2022/01/02 19:59:04;;;;;;;19.70;16.27;;;;;;;6.65;66.38;95496.44;6141575;23;20194;-62
2022/01/02 20:01:32;;;;;;;21.67;17.03;;;;;;;6.48;67.49;95497.72;6141787;23;20194;-62
2022/01/02 20:03:57;;;;;;;20.73;15.67;;;;;;;6.51;67.36;95493.09;6141951;23;20202;-62
2022/01/02 20:06:23;;;;;;;20.20;15.67;;;;;;;6.61;67.23;95493.25;6167068;23;20244;-63
2022/01/02 20:08:48;;;;;;;23.73;16.30;;;;;;;6.47;67.43;95483.84;6167466;23;20170;-66
2022/01/02 20:11:14;;;;;;;24.00;17.20;;;;;;;6.71;66.82;95490.75;6141043;23;20254;-63
2022/01/02 20:13:41;;;;;;;20.87;16.40;;;;;;;6.77;66.71;95482.47;6140904;23;20203;-63
2022/01/02 20:16:09;;;;;;;19.20;16.47;;;;;;;6.79;66.56;95484.00;6166116;23;20206;-64
2022/01/02 20:18:37;;;;;;;22.77;16.20;;;;;;;6.68;66.57;95481.34;6165505;23;20178;-63
2022/01/02 20:21:05;;;;;;;19.37;15.90;;;;;;;6.63;66.86;95473.06;6167319;23;20186;-63
2022/01/02 20:23:30;;;;;;;19.40;16.17;;;;;;;6.58;66.91;95464.72;6166388;23;20234;-63
2022/01/02 20:25:56;;;;;;;21.60;17.00;;;;;;;6.48;67.11;95469.81;6167036;23;20206;-61
2022/01/02 20:28:21;;;;;;;22.00;16.27;;;;;;;6.36;67.50;95470.72;6166969;23;20195;-63
2022/01/02 20:30:48;;;;;;;22.50;16.87;;;;;;;6.47;67.25;95460.31;6167133;23;20265;-63
2022/01/02 20:33:14;;;;;;;25.40;17.07;;;;;;;6.34;67.62;95457.78;6141678;23;20177;-62
2022/01/02 20:35:41;;;;;;;26.90;18.80;;;;;;;6.46;67.20;95447.38;6141579;23;20195;-62
2022/01/02 20:38:07;;;;;;;22.77;17.47;;;;;;;6.33;66.91;95443.06;6142036;23;20203;-62
2022/01/02 20:40:32;;;;;;;24.47;17.00;;;;;;;6.21;67.98;95449.22;6166251;23;20246;-62
2022/01/02 20:42:59;;;;;;;26.03;17.87;;;;;;;6.24;67.72;95453.38;6141487;23;20202;-61
2022/01/02 20:45:26;;;;;;;24.87;17.53;;;;;;;6.34;67.36;95444.72;6141313;23;20190;-63
2022/01/02 20:47:51;;;;;;;27.17;16.87;;;;;;;6.28;67.42;95433.91;6140534;23;20182;-61
2022/01/02 20:50:17;;;;;;;25.63;17.47;;;;;;;6.23;67.94;95446.47;6141391;23;20254;-62
2022/01/02 20:52:44;;;;;;;24.63;18.57;;;;;;;6.22;67.72;95444.81;6141114;23;20261;-64
2022/01/02 20:55:11;;;;;;;28.97;19.50;;;;;;;6.09;68.02;95439.66;6166970;23;20198;-63
2022/01/02 20:57:37;;;;;;;22.57;16.33;;;;;;;5.99;68.44;95441.28;6141396;23;20203;-62
2022/01/02 21:00:05;;;;;;;25.20;19.10;;;;;;;6.04;68.17;95453.09;6167708;23;20167;-61
2022/01/02 21:02:31;;;;;;;28.27;19.40;;;;;;;5.96;68.42;95442.34;6165678;23;21089;-62
2022/01/02 21:04:57;;;;;;;26.40;17.73;;;;;;;6.06;68.43;95445.94;6166464;23;20221;-62
2022/01/02 21:07:22;;;;;;;25.73;18.90;;;;;;;6.09;67.97;95448.31;6140880;23;20261;-63
2022/01/02 21:09:48;;;;;;;29.17;20.67;;;;;;;6.01;68.12;95460.28;6141054;23;20251;-62
2022/01/02 21:12:13;;;;;;;31.80;22.33;;;;;;;5.81;68.75;95443.47;6142002;23;20174;-62
2022/01/02 21:14:39;;;;;;;32.60;22.30;;;;;;;6.02;68.43;95439.31;6141482;23;20246;-64
2022/01/02 21:17:05;;;;;;;58.27;39.17;;;;;;;6.01;68.67;95440.22;6166662;23;20254;-63
2022/01/02 21:19:31;;;;;;;61.47;43.50;;;;;;;6.03;69.51;95445.34;6140821;23;20194;-62
2022/01/02 21:21:57;;;;;;;58.90;35.53;;;;;;;5.92;68.93;95436.50;6140298;23;20254;-62
2022/01/02 21:24:23;;;;;;;58.77;37.27;;;;;;;5.90;68.75;95437.56;6164834;23;20183;-62
2022/01/02 21:26:48;;;;;;;58.97;37.33;;;;;;;5.81;68.72;95438.25;6140339;23;20171;-62
2022/01/02 21:29:14;;;;;;;57.83;35.97;;;;;;;5.71;69.22;95432.84;6165914;23;20198;-63
2022/01/02 21:31:40;;;;;;;52.43;34.53;;;;;;;5.82;69.56;95432.06;6166189;23;20199;-62
2022/01/02 21:34:05;;;;;;;50.77;34.73;;;;;;;5.85;69.17;95439.66;6139381;23;20201;-62
2022/01/02 21:36:31;;;;;;;56.40;36.20;;;;;;;5.80;69.12;95428.72;6140230;23;20181;-62
2022/01/02 21:38:56;;;;;;;55.13;34.17;;;;;;;5.84;69.00;95432.78;6141315;23;20178;-62
2022/01/02 21:41:22;;;;;;;37.27;26.80;;;;;;;5.81;69.10;95426.03;6135641;23;20199;-63
2022/01/02 21:43:48;;;;;;;41.43;26.63;;;;;;;5.71;68.86;95418.03;6129128;23;20195;-63
2022/01/02 21:46:14;;;;;;;41.33;26.43;;;;;;;5.68;69.03;95420.03;6165491;23;20225;-62
2022/01/02 21:48:39;;;;;;;35.17;25.43;;;;;;;5.84;68.43;95406.69;6140726;23;20190;-63
2022/01/02 21:51:05;;;;;;;33.60;23.67;;;;;;;5.70;68.27;95411.16;6166130;23;20171;-61
2022/01/02 21:53:30;;;;;;;31.77;22.17;;;;;;;5.60;68.70;95402.31;6139857;23;20190;-61
2022/01/02 21:55:56;;;;;;;30.23;21.23;;;;;;;5.50;69.44;95398.72;6139170;23;20210;-61
2022/01/02 21:58:21;;;;;;;27.47;20.47;;;;;;;5.43;69.97;95394.91;6139584;23;20213;-60
2022/01/02 22:00:51;;;;;;;25.73;20.97;;;;;;;5.41;70.11;95395.00;6163742;23;20195;-61
2022/01/02 22:03:21;;;;;;;25.70;20.57;;;;;;;5.44;70.05;95404.38;6140147;23;20189;-64
2022/01/02 22:06:04;;;;;;;27.10;21.23;;;;;;;5.54;69.68;95397.56;6166207;23;20186;-63
2022/01/02 22:08:29;;;;;;;28.40;21.77;;;;;;;5.56;69.97;95407.88;6140055;23;20198;-61
2022/01/02 22:10:55;;;;;;;28.50;22.13;;;;;;;5.24;70.84;95406.66;6165857;23;20276;-61
2022/01/02 22:13:22;;;;;;;25.97;20.90;;;;;;;5.37;70.67;95403.16;6140409;23;20199;-61
2022/01/02 22:15:48;;;;;;;30.03;24.27;;;;;;;5.36;70.68;95388.47;6139773;23;20206;-62
2022/01/02 22:18:15;;;;;;;33.20;23.73;;;;;;;5.25;70.57;95400.50;6139983;23;20175;-61
2022/01/02 22:20:44;;;;;;;28.27;21.87;;;;;;;5.37;70.57;95390.94;6140112;23;20300;-61
2022/01/02 22:23:10;;;;;;;26.83;22.33;;;;;;;5.36;70.49;95386.69;6140756;23;20253;-61
2022/01/02 22:25:37;;;;;;;25.07;21.97;;;;;;;5.26;70.51;95381.28;6140897;23;20203;-61
2022/01/02 22:28:03;;;;;;;30.83;21.93;;;;;;;5.31;70.26;95378.34;6164475;23;20215;-63
2022/01/02 22:30:32;;;;;;;25.87;22.13;;;;;;;5.47;69.70;95388.50;6164098;23;20182;-62
2022/01/02 22:32:58;;;;;;;29.90;22.70;;;;;;;5.33;69.80;95384.31;6140015;23;20170;-62
2022/01/02 22:35:31;;;;;;;29.63;23.27;;;;;;;5.28;69.98;95384.63;6139840;23;20241;-62
2022/01/02 22:37:57;;;;;;;33.33;22.37;;;;;;;5.24;69.77;95377.97;6165619;23;20355;-62
2022/01/02 22:40:23;;;;;;;32.07;24.70;;;;;;;5.20;70.39;95386.13;6166510;23;20195;-66
2022/01/02 22:42:48;;;;;;;35.47;24.17;;;;;;;5.15;70.13;95378.63;6140643;23;20221;-62
2022/01/02 22:45:14;;;;;;;34.10;25.20;;;;;;;5.26;69.88;95389.13;6165826;23;20167;-63
2022/01/02 22:47:44;;;;;;;38.33;26.23;;;;;;;5.32;69.22;95390.47;6139838;23;20492;-62
2022/01/02 22:50:11;;;;;;;30.23;23.50;;;;;;;5.29;69.24;95375.88;6164986;23;20273;-63
2022/01/02 22:52:39;;;;;;;37.93;25.30;;;;;;;5.20;69.63;95379.13;6139615;23;20206;-63
2022/01/02 22:55:08;;;;;;;36.93;27.17;;;;;;;5.27;69.20;95380.38;6164951;23;20203;-64
2022/01/02 22:57:34;;;;;;;32.07;25.87;;;;;;;5.24;69.29;95377.16;6165696;23;20170;-63
2022/01/02 23:00:00;;;;;;;34.73;25.73;;;;;;;4.84;70.15;95373.00;6140426;23;20189;-64
2022/01/02 23:02:28;;;;;;;36.10;26.13;;;;;;;4.88;70.76;95368.41;6165407;23;20202;-63
2022/01/02 23:04:54;;;;;;;37.37;26.30;;;;;;;4.98;70.32;95371.19;6164193;23;20237;-64
2022/01/02 23:07:21;;;;;;;36.17;27.60;;;;;;;4.89;70.27;95353.59;6139256;23;20207;-63
2022/01/02 23:09:48;;;;;;;35.77;25.80;;;;;;;4.87;70.17;95356.31;6139689;23;20201;-63
2022/01/02 23:12:13;;;;;;;30.70;24.80;;;;;;;4.93;70.43;95365.47;6166182;23;20175;-64
2022/01/02 23:14:39;;;;;;;35.13;25.00;;;;;;;4.89;70.66;95353.59;6140058;23;20195;-63
2022/01/02 23:17:05;;;;;;;38.00;25.40;;;;;;;5.08;69.35;95336.53;6139992;23;20202;-63
2022/01/02 23:19:37;;;;;;;35.03;24.40;;;;;;;4.93;69.86;95350.66;6165126;23;20206;-63
2022/01/02 23:22:04;;;;;;;35.63;23.43;;;;;;;4.84;69.95;95339.13;6166627;23;20205;-63
2022/01/02 23:24:29;;;;;;;34.77;24.13;;;;;;;4.84;70.06;95338.31;6166433;23;20194;-64
2022/01/02 23:26:55;;;;;;;29.00;22.80;;;;;;;4.79;70.37;95343.84;6166738;23;20179;-62
2022/01/02 23:29:22;;;;;;;31.70;23.07;;;;;;;4.74;70.27;95348.53;6140908;23;20250;-62
2022/01/02 23:31:48;;;;;;;32.70;25.27;;;;;;;4.67;70.69;95339.47;6141370;23;20209;-62
2022/01/02 23:34:13;;;;;;;32.97;25.90;;;;;;;4.61;70.59;95340.75;6141699;23;20202;-62
2022/01/02 23:36:40;;;;;;;29.40;23.87;;;;;;;4.63;70.68;95327.63;6141472;23;20245;-63
2022/01/02 23:39:07;;;;;;;31.67;22.23;;;;;;;4.59;70.86;95339.19;6167529;23;20175;-65
2022/01/02 23:41:34;;;;;;;33.93;24.07;;;;;;;4.50;71.03;95329.41;6140985;23;20265;-63
2022/01/02 23:43:59;;;;;;;30.37;23.67;;;;;;;4.50;71.49;95324.22;6141115;23;20199;-63
2022/01/02 23:46:34;;;;;;;31.47;22.73;;;;;;;4.53;71.09;95329.22;6141967;23;20206;-63
2022/01/02 23:49:08;;;;;;;35.10;24.53;;;;;;;4.43;71.55;95327.22;6141321;23;20197;-65
2022/01/02 23:51:36;;;;;;;33.07;24.73;;;;;;;4.60;70.66;95325.25;6167089;23;20221;-63
2022/01/02 23:54:04;;;;;;;33.93;25.20;;;;;;;4.59;70.65;95319.19;6166942;23;20175;-63
2022/01/02 23:56:34;;;;;;;32.17;24.10;;;;;;;4.39;71.03;95317.97;6140977;23;20199;-64
2022/01/02 23:59:03;;;;;;;30.33;24.53;;;;;;;4.32;71.38;95310.69;6141029;23;20205;-64
